Terminal Aerodrome Forecast
Issued by NWS

Home | Current Version | Previous Version | Text Only | Print | Product List | Glossary On
Versions: 1 2 3 4 5 6 7 8 9 10 11 12 13 14 15 16
000
FTUS41 KPBZ 251410 AAA
TAFFKL
TAF AMD
KFKL 251410Z 2514/2612 22007KT P6SM BKN250
      TEMPO 2514/2516 BKN008
     FM252200 VRB05KT P6SM VCTS BKN035CB
     FM260300 VRB05KT P6SM VCSH BKN015
      AMD LTD TO CLD VIS AND WIND=

USA.gov is the U.S. government's official web portal to all federal, state and local government web resources and services.